createdAt,value
2022-12-11T00:00:25.261Z,4.30
2022-12-11T00:02:53.248Z,4.30
2022-12-11T00:05:19.714Z,4.20
2022-12-11T00:07:46.207Z,4.30
2022-12-11T00:10:12.679Z,4.20
2022-12-11T00:12:39.118Z,4.30
2022-12-11T00:15:06.500Z,4.30
2022-12-11T00:17:32.979Z,4.30
2022-12-11T00:19:59.669Z,4.30
2022-12-11T00:22:26.106Z,4.40
2022-12-11T00:24:52.581Z,4.40
2022-12-11T00:27:19.054Z,4.30
2022-12-11T00:29:48.547Z,4.30
2022-12-11T00:32:16.753Z,4.40
2022-12-11T00:34:43.218Z,4.40
2022-12-11T00:37:09.719Z,4.40
2022-12-11T00:39:39.039Z,4.30
2022-12-11T00:42:07.475Z,4.30
2022-12-11T00:44:34.430Z,4.40
2022-12-11T00:47:00.933Z,4.30
2022-12-11T00:49:27.475Z,4.20
2022-12-11T00:51:53.942Z,4.20
2022-12-11T00:54:20.398Z,4.40
2022-12-11T00:56:46.864Z,4.40
2022-12-11T00:59:13.339Z,4.30
2022-12-11T01:01:39.849Z,4.20
2022-12-11T01:04:06.337Z,4.20
2022-12-11T01:06:32.770Z,4.30
2022-12-11T01:09:17.602Z,4.20
2022-12-11T01:11:44.070Z,4.20
2022-12-11T01:14:11.521Z,4.20
2022-12-11T01:16:38.444Z,4.20
2022-12-11T01:19:04.933Z,4.10
2022-12-11T01:21:31.579Z,4.20
2022-12-11T01:23:58.032Z,4.30
2022-12-11T01:26:24.497Z,4.20
2022-12-11T01:28:51.895Z,4.20
2022-12-11T01:31:19.802Z,4.30
2022-12-11T01:33:46.320Z,4.20
2022-12-11T01:36:19.138Z,4.20
2022-12-11T01:38:47.551Z,4.20
2022-12-11T01:41:16.348Z,4.20
2022-12-11T01:45:47.565Z,4.20
2022-12-11T01:48:23.305Z,4.20
2022-12-11T01:51:05.158Z,4.30
2022-12-11T01:53:39.111Z,4.40
2022-12-11T01:56:07.627Z,4.60
2022-12-11T01:58:50.064Z,4.70
2022-12-11T02:01:46.335Z,4.70
2022-12-11T02:04:17.735Z,4.80
2022-12-11T02:06:48.851Z,4.80
2022-12-11T02:09:25.059Z,4.70
2022-12-11T02:17:53.263Z,4.60
2022-12-11T02:21:50.174Z,4.50
2022-12-11T02:25:09.245Z,4.50
2022-12-11T02:27:55.878Z,4.50
2022-12-11T02:30:23.210Z,4.50
2022-12-11T02:32:58.764Z,4.50
2022-12-11T02:35:34.882Z,4.60
2022-12-11T02:38:12.355Z,4.50
2022-12-11T02:40:41.941Z,4.40
2022-12-11T02:43:14.416Z,4.60
2022-12-11T02:45:44.661Z,4.60
2022-12-11T02:48:13.270Z,4.60
2022-12-11T02:50:46.688Z,4.70
2022-12-11T02:53:19.610Z,4.90
2022-12-11T02:55:51.501Z,4.80
2022-12-11T02:58:25.666Z,4.80
2022-12-11T03:00:52.357Z,4.70
2022-12-11T03:03:18.846Z,4.60
2022-12-11T03:05:45.611Z,4.60
2022-12-11T03:08:19.242Z,4.70
2022-12-11T03:10:46.024Z,4.70
2022-12-11T03:13:18.707Z,4.70
2022-12-11T03:19:44.643Z,4.60
2022-12-11T03:23:01.999Z,4.50
2022-12-11T03:26:18.093Z,4.40
2022-12-11T03:29:02.347Z,4.30
2022-12-11T03:31:58.308Z,4.40
2022-12-11T03:34:40.809Z,4.50
2022-12-11T03:37:09.806Z,4.50
2022-12-11T03:39:49.334Z,4.50
2022-12-11T03:42:19.865Z,4.40
2022-12-11T03:44:49.806Z,4.30
2022-12-11T03:47:24.667Z,4.40
2022-12-11T03:49:55.509Z,4.30
2022-12-11T03:52:29.332Z,4.20
2022-12-11T03:55:02.782Z,4.10
2022-12-11T03:57:35.695Z,4.10
2022-12-11T04:00:08.389Z,4.10
2022-12-11T04:02:34.873Z,4.10
2022-12-11T04:05:01.353Z,4.10
2022-12-11T04:07:28.021Z,4.10
2022-12-11T04:09:57.135Z,4.00
2022-12-11T04:12:25.939Z,3.90
2022-12-11T04:15:01.112Z,4.00
2022-12-11T04:17:48.194Z,4.00
2022-12-11T04:20:33.104Z,4.00
2022-12-11T04:23:17.987Z,4.00
2022-12-11T04:25:44.440Z,4.00
2022-12-11T04:28:10.910Z,4.10
2022-12-11T04:30:37.521Z,4.10
2022-12-11T04:33:04.495Z,4.00
2022-12-11T04:35:35.320Z,4.00
2022-12-11T04:38:01.789Z,4.00
2022-12-11T04:40:28.262Z,4.00
2022-12-11T04:42:54.702Z,3.90
2022-12-11T04:45:21.185Z,4.00
2022-12-11T04:47:47.745Z,3.90
2022-12-11T04:50:15.569Z,3.80
2022-12-11T04:52:42.778Z,3.80
2022-12-11T04:55:11.173Z,3.60
2022-12-11T04:57:38.446Z,3.50
2022-12-11T05:00:09.450Z,3.50
2022-12-11T05:02:38.221Z,3.50
2022-12-11T05:05:09.240Z,3.60
2022-12-11T05:07:37.057Z,3.60
2022-12-11T05:10:04.915Z,3.60
2022-12-11T05:12:32.641Z,3.70
2022-12-11T05:14:59.116Z,3.60
2022-12-11T05:17:25.572Z,3.50
2022-12-11T05:19:55.061Z,3.40
2022-12-11T05:22:21.548Z,3.30
2022-12-11T05:24:48.024Z,3.40
2022-12-11T05:27:14.641Z,3.30
2022-12-11T05:29:41.201Z,3.40
2022-12-11T05:32:10.610Z,3.50
2022-12-11T05:34:37.110Z,3.40
2022-12-11T05:37:03.569Z,3.30
2022-12-11T05:39:30.104Z,3.40
2022-12-11T05:41:59.029Z,3.30
2022-12-11T05:44:26.299Z,3.30
2022-12-11T05:46:52.991Z,3.30
2022-12-11T05:49:20.108Z,3.20
2022-12-11T05:51:47.007Z,3.10
2022-12-11T05:54:13.976Z,3.00
2022-12-11T05:56:40.476Z,3.00
2022-12-11T05:59:10.412Z,3.00
2022-12-11T06:01:41.702Z,3.00
2022-12-11T06:04:13.288Z,3.10
2022-12-11T06:06:40.068Z,3.10
2022-12-11T06:09:07.456Z,3.10
2022-12-11T06:11:35.178Z,3.20
2022-12-11T06:14:03.360Z,3.20
2022-12-11T06:16:29.919Z,3.10
2022-12-11T06:18:58.441Z,3.30
2022-12-11T06:21:32.056Z,3.20
2022-12-11T06:24:01.814Z,3.10
2022-12-11T06:26:28.979Z,3.10
2022-12-11T06:28:55.457Z,3.00
2022-12-11T06:31:21.959Z,3.10
2022-12-11T06:33:48.605Z,3.20
2022-12-11T06:36:19.120Z,3.30
2022-12-11T06:38:46.982Z,3.40
2022-12-11T06:41:14.023Z,3.40
2022-12-11T06:43:42.203Z,3.50
2022-12-11T06:46:17.142Z,3.50
2022-12-11T06:48:44.741Z,3.50
2022-12-11T06:51:17.787Z,3.50
2022-12-11T06:53:45.057Z,3.50
2022-12-11T06:56:14.912Z,3.40
2022-12-11T06:58:46.055Z,3.50
2022-12-11T07:01:33.799Z,3.40
2022-12-11T07:04:00.362Z,3.50
2022-12-11T07:06:28.441Z,3.50
2022-12-11T07:08:55.968Z,3.50
2022-12-11T07:11:22.794Z,3.60
2022-12-11T07:13:49.564Z,3.50
2022-12-11T07:16:18.054Z,3.50
2022-12-11T07:18:49.842Z,3.50
2022-12-11T07:21:17.193Z,3.50
2022-12-11T07:23:43.770Z,3.50
2022-12-11T07:26:15.156Z,3.50
2022-12-11T07:28:42.379Z,3.60
2022-12-11T07:31:12.462Z,3.60
2022-12-11T07:33:39.405Z,3.60
2022-12-11T07:36:08.606Z,3.60
2022-12-11T07:38:35.781Z,3.60
2022-12-11T07:41:04.762Z,3.60
2022-12-11T07:43:32.883Z,3.60
2022-12-11T07:46:23.907Z,3.80
2022-12-11T07:48:50.427Z,3.70
2022-12-11T07:51:27.356Z,3.80
2022-12-11T07:53:58.321Z,3.80
2022-12-11T07:56:25.664Z,3.80
2022-12-11T07:58:52.190Z,3.80
2022-12-11T08:01:27.782Z,4.00
2022-12-11T08:03:55.194Z,3.90
2022-12-11T08:06:28.532Z,3.90
2022-12-11T08:08:57.651Z,4.00
2022-12-11T08:11:25.202Z,4.10
2022-12-11T08:13:52.361Z,4.10
2022-12-11T08:16:19.669Z,4.30
2022-12-11T08:18:50.691Z,4.40
2022-12-11T08:21:23.668Z,4.50
2022-12-11T08:23:51.770Z,4.50
2022-12-11T08:26:33.608Z,4.60
2022-12-11T08:29:01.850Z,4.60
2022-12-11T08:31:29.360Z,4.60
2022-12-11T08:33:56.837Z,4.70
2022-12-11T08:36:24.330Z,4.80
2022-12-11T08:38:52.988Z,4.80
2022-12-11T08:41:29.293Z,4.90
2022-12-11T08:43:58.003Z,5.00
2022-12-11T08:46:28.489Z,4.90
2022-12-11T08:48:55.829Z,5.00
2022-12-11T08:51:25.821Z,5.10
2022-12-11T08:53:56.683Z,5.00
2022-12-11T08:56:23.723Z,5.10
2022-12-11T08:58:51.828Z,5.20
2022-12-11T09:01:24.617Z,5.00
2022-12-11T09:03:53.539Z,5.10
2022-12-11T09:06:26.569Z,5.10
2022-12-11T09:08:53.780Z,5.20
2022-12-11T09:11:31.801Z,5.30
2022-12-11T09:14:03.593Z,5.50
2022-12-11T09:16:36.894Z,5.60
2022-12-11T09:19:05.692Z,5.60
2022-12-11T09:21:32.136Z,5.80
2022-12-11T09:24:00.478Z,5.80
2022-12-11T09:26:29.413Z,5.90
2022-12-11T09:28:56.375Z,5.70
2022-12-11T09:31:30.692Z,5.80
2022-12-11T09:34:04.728Z,5.90
2022-12-11T09:36:31.756Z,5.90
2022-12-11T09:39:04.326Z,5.90
2022-12-11T09:42:27.289Z,6.00
2022-12-11T09:45:02.487Z,6.10
2022-12-11T09:47:49.448Z,5.90
2022-12-11T09:50:26.035Z,6.00
2022-12-11T09:53:20.887Z,5.90
2022-12-11T09:56:15.808Z,5.80
2022-12-11T10:00:04.275Z,5.80
2022-12-11T10:05:36.353Z,6.20
2022-12-11T10:14:53.429Z,6.50
2022-12-11T10:17:31.691Z,5.90
2022-12-11T10:20:38.478Z,5.60
2022-12-11T10:23:17.020Z,5.40
2022-12-11T10:26:03.276Z,5.50
2022-12-11T10:28:29.750Z,5.80
2022-12-11T10:31:36.151Z,5.80
2022-12-11T10:34:14.599Z,5.50
2022-12-11T10:36:42.946Z,5.60
2022-12-11T10:39:18.972Z,5.60
2022-12-11T10:41:51.167Z,5.60
2022-12-11T10:44:40.050Z,5.40
2022-12-11T10:47:17.357Z,5.30
2022-12-11T10:50:02.352Z,5.40
2022-12-11T10:52:44.220Z,5.30
2022-12-11T10:55:29.891Z,5.20
2022-12-11T10:58:03.714Z,5.20
2022-12-11T11:00:39.928Z,5.30
2022-12-11T11:03:21.947Z,5.30
2022-12-11T11:05:49.939Z,5.30
2022-12-11T11:08:22.853Z,5.20
2022-12-11T11:11:00.593Z,5.00
2022-12-11T11:13:30.489Z,5.10
2022-12-11T11:16:11.576Z,5.00
2022-12-11T11:18:41.236Z,5.20
2022-12-11T11:21:18.636Z,5.50
2022-12-11T11:23:48.318Z,5.70
2022-12-11T11:26:22.107Z,5.80
2022-12-11T11:28:56.186Z,6.00
2022-12-11T11:31:34.678Z,5.90
2022-12-11T11:34:07.086Z,6.00
2022-12-11T11:36:36.508Z,6.10
2022-12-11T11:39:52.261Z,6.10
2022-12-11T11:42:29.692Z,5.60
2022-12-11T11:45:17.240Z,5.40
2022-12-11T11:48:14.035Z,5.50
2022-12-11T11:50:45.708Z,5.30
2022-12-11T11:53:44.694Z,5.20
2022-12-11T11:56:25.231Z,5.10
2022-12-11T11:59:46.438Z,5.20
2022-12-11T12:02:17.031Z,5.30
2022-12-11T12:04:48.525Z,5.30
2022-12-11T12:08:13.226Z,5.00
2022-12-11T12:11:13.607Z,4.90
2022-12-11T12:17:51.985Z,4.80
2022-12-11T12:21:52.643Z,4.70
2022-12-11T12:25:52.378Z,4.60
2022-12-11T12:31:20.473Z,4.60
2022-12-11T12:36:23.078Z,4.60
2022-12-11T12:40:36.163Z,4.80
2022-12-11T12:44:45.686Z,5.00
2022-12-11T12:47:18.065Z,4.80
2022-12-11T12:49:51.505Z,4.70
2022-12-11T12:52:35.897Z,4.70
2022-12-11T12:55:30.999Z,4.60
2022-12-11T12:58:04.368Z,4.60
2022-12-11T13:00:41.893Z,4.60
2022-12-11T13:03:31.433Z,4.60
2022-12-11T13:06:10.327Z,4.20
2022-12-11T13:08:50.218Z,3.90
2022-12-11T13:11:20.480Z,3.70
2022-12-11T13:14:05.902Z,3.90
2022-12-11T13:16:46.529Z,3.90
2022-12-11T13:19:35.431Z,3.80
2022-12-11T13:24:48.529Z,4.00
2022-12-11T13:27:48.476Z,3.90
2022-12-11T13:30:25.552Z,3.90
2022-12-11T13:33:44.789Z,4.00
2022-12-11T13:36:37.763Z,3.90
2022-12-11T13:39:46.848Z,4.00
2022-12-11T13:42:31.636Z,3.90
2022-12-11T13:45:00.090Z,3.90
2022-12-11T13:47:30.796Z,4.00
2022-12-11T13:50:50.392Z,4.00
2022-12-11T13:53:20.483Z,4.10
2022-12-11T13:55:59.304Z,4.10
2022-12-11T13:58:27.705Z,4.00
2022-12-11T14:01:31.506Z,3.60
2022-12-11T14:04:15.222Z,3.70
2022-12-11T14:06:42.023Z,3.60
2022-12-11T14:09:08.899Z,3.50
2022-12-11T14:11:41.906Z,3.40
2022-12-11T14:14:20.777Z,3.30
2022-12-11T14:16:50.800Z,3.30
2022-12-11T14:19:21.631Z,3.30
2022-12-11T14:22:03.794Z,3.30
2022-12-11T14:24:32.126Z,3.40
2022-12-11T14:26:59.337Z,3.50
2022-12-11T14:29:31.993Z,3.30
2022-12-11T14:32:05.936Z,3.30
2022-12-11T14:34:42.778Z,3.20
2022-12-11T14:37:10.519Z,3.20
2022-12-11T14:40:04.887Z,3.20
2022-12-11T14:43:11.919Z,3.10
2022-12-11T14:45:44.437Z,3.00
2022-12-11T14:48:23.101Z,3.00
2022-12-11T14:50:53.560Z,3.00
2022-12-11T14:53:30.683Z,3.10
2022-12-11T14:56:02.712Z,3.10
2022-12-11T14:58:30.337Z,3.10
2022-12-11T15:01:07.580Z,3.00
2022-12-11T15:03:42.494Z,3.00
2022-12-11T15:06:31.257Z,2.80
2022-12-11T15:09:08.484Z,2.80
2022-12-11T15:11:35.006Z,2.70
2022-12-11T15:14:04.647Z,2.70
2022-12-11T15:16:40.865Z,2.60
2022-12-11T15:19:20.349Z,2.70
2022-12-11T15:21:47.175Z,2.80
2022-12-11T15:24:38.187Z,2.90
2022-12-11T15:27:05.390Z,3.00
2022-12-11T15:29:39.432Z,3.00
2022-12-11T15:32:23.860Z,3.00
2022-12-11T15:34:58.951Z,3.10
2022-12-11T15:37:37.681Z,3.10
2022-12-11T15:40:05.432Z,3.00
2022-12-11T15:42:41.362Z,2.80
2022-12-11T15:45:17.451Z,2.90
2022-12-11T15:47:45.774Z,2.90
2022-12-11T15:50:18.323Z,2.90
2022-12-11T15:52:45.755Z,2.90
2022-12-11T15:55:12.941Z,2.90
2022-12-11T15:57:57.504Z,2.90
2022-12-11T16:00:26.272Z,2.90
2022-12-11T16:02:53.020Z,2.90
2022-12-11T16:05:19.631Z,3.00
2022-12-11T16:07:47.136Z,3.00
2022-12-11T16:10:17.233Z,3.00
2022-12-11T16:12:44.226Z,2.80
2022-12-11T16:15:21.433Z,2.90
2022-12-11T16:17:49.523Z,3.00
2022-12-11T16:20:15.974Z,3.00
2022-12-11T16:22:42.431Z,3.20
2022-12-11T16:25:09.095Z,3.10
2022-12-11T16:27:38.406Z,3.00
2022-12-11T16:30:05.968Z,3.00
2022-12-11T16:32:32.740Z,3.00
2022-12-11T16:35:00.341Z,3.00
2022-12-11T16:37:26.828Z,3.00
2022-12-11T16:39:53.313Z,2.90
2022-12-11T16:42:19.786Z,2.80
2022-12-11T16:44:46.299Z,2.80
2022-12-11T16:47:12.789Z,2.70
2022-12-11T16:49:39.312Z,2.70
2022-12-11T16:52:05.783Z,2.80
2022-12-11T16:54:32.271Z,2.80
2022-12-11T16:56:58.747Z,2.70
2022-12-11T16:59:25.235Z,2.70
2022-12-11T17:01:51.798Z,2.70
2022-12-11T17:04:18.297Z,2.70
2022-12-11T17:06:45.609Z,2.60
2022-12-11T17:09:12.097Z,2.60
2022-12-11T17:11:38.538Z,2.60
2022-12-11T17:14:05.023Z,2.60
2022-12-11T17:16:33.166Z,2.60
2022-12-11T17:19:02.239Z,2.60
2022-12-11T17:21:28.695Z,2.70
2022-12-11T17:23:55.460Z,2.70
2022-12-11T17:26:24.564Z,2.70
2022-12-11T17:28:51.365Z,2.60
2022-12-11T17:31:19.266Z,2.70
2022-12-11T17:33:46.879Z,2.70
2022-12-11T17:36:18.501Z,2.60
2022-12-11T17:38:50.179Z,2.60
2022-12-11T17:41:20.670Z,2.60
2022-12-11T17:43:53.049Z,2.50
2022-12-11T17:46:20.836Z,2.50
2022-12-11T17:48:48.245Z,2.50
2022-12-11T17:51:21.219Z,2.60
2022-12-11T17:53:47.738Z,2.60
2022-12-11T17:56:14.230Z,2.60
2022-12-11T17:58:41.142Z,2.50
2022-12-11T18:01:11.820Z,2.50
2022-12-11T18:03:39.385Z,2.50
2022-12-11T18:06:11.259Z,2.50
2022-12-11T18:08:38.461Z,2.50
2022-12-11T18:11:13.884Z,2.50
2022-12-11T18:13:41.200Z,2.40
2022-12-11T18:16:13.290Z,2.30
2022-12-11T18:18:39.990Z,2.30
2022-12-11T18:21:06.867Z,2.40
2022-12-11T18:23:33.636Z,2.40
2022-12-11T18:26:00.093Z,2.30
2022-12-11T18:28:26.561Z,2.40
2022-12-11T18:30:53.188Z,2.30
2022-12-11T18:33:19.683Z,2.30
2022-12-11T18:35:49.548Z,2.30
2022-12-11T18:38:16.032Z,2.30
2022-12-11T18:40:42.612Z,2.10
2022-12-11T18:43:09.089Z,2.10
2022-12-11T18:45:39.497Z,2.20
2022-12-11T18:48:07.100Z,2.10
2022-12-11T18:50:34.107Z,2.00
2022-12-11T18:53:00.584Z,2.00
2022-12-11T18:55:27.037Z,1.90
2022-12-11T18:57:53.516Z,1.90
2022-12-11T19:00:21.323Z,2.00
2022-12-11T19:02:51.552Z,2.00
2022-12-11T19:05:18.350Z,2.10
2022-12-11T19:07:44.871Z,2.10
2022-12-11T19:10:14.578Z,2.10
2022-12-11T19:12:42.166Z,2.10
2022-12-11T19:15:10.589Z,2.10
2022-12-11T19:17:37.835Z,2.10
2022-12-11T19:20:25.461Z,2.10
2022-12-11T19:23:14.112Z,2.10
2022-12-11T19:25:46.565Z,2.00
2022-12-11T19:28:13.849Z,2.00
2022-12-11T19:30:49.032Z,2.00
2022-12-11T19:33:16.324Z,1.90
2022-12-11T19:35:52.076Z,1.80
2022-12-11T19:38:18.594Z,1.80
2022-12-11T19:40:45.039Z,1.80
2022-12-11T19:43:12.767Z,1.70
2022-12-11T19:45:40.686Z,1.70
2022-12-11T19:48:07.144Z,1.70
2022-12-11T19:50:35.717Z,1.70
2022-12-11T19:53:02.695Z,1.70
2022-12-11T19:55:29.143Z,1.60
2022-12-11T19:57:55.776Z,1.50
2022-12-11T20:00:22.800Z,1.40
2022-12-11T20:02:49.360Z,1.50
2022-12-11T20:05:16.142Z,1.50
2022-12-11T20:07:45.644Z,1.60
2022-12-11T20:10:12.262Z,1.70
2022-12-11T20:12:40.054Z,1.70
2022-12-11T20:15:07.540Z,1.70
2022-12-11T20:17:35.982Z,1.60
2022-12-11T20:20:03.023Z,1.60
2022-12-11T20:22:29.472Z,1.50
2022-12-11T20:24:55.961Z,1.50
2022-12-11T20:27:25.306Z,1.50
2022-12-11T20:29:51.949Z,1.40
2022-12-11T20:32:18.412Z,1.30
2022-12-11T20:34:44.936Z,1.10
2022-12-11T20:37:11.881Z,1.00
2022-12-11T20:39:38.359Z,1.00
2022-12-11T20:42:09.403Z,1.00
2022-12-11T20:44:35.848Z,0.90
2022-12-11T20:47:02.453Z,0.80
2022-12-11T20:49:28.995Z,1.00
2022-12-11T20:51:55.632Z,1.10
2022-12-11T20:54:22.136Z,1.00
2022-12-11T20:56:48.632Z,1.00
2022-12-11T20:59:15.216Z,0.90
2022-12-11T21:01:41.810Z,0.90
2022-12-11T21:04:08.383Z,0.80
2022-12-11T21:06:37.900Z,0.80
2022-12-11T21:09:12.363Z,0.80
2022-12-11T21:11:39.069Z,0.90
2022-12-11T21:14:05.724Z,1.00
2022-12-11T21:16:36.281Z,0.90
2022-12-11T21:19:04.324Z,0.90
2022-12-11T21:21:41.555Z,1.00
2022-12-11T21:24:15.298Z,1.10
2022-12-11T21:26:41.801Z,1.20
2022-12-11T21:29:08.702Z,1.20
2022-12-11T21:31:35.208Z,1.10
2022-12-11T21:34:01.708Z,1.10
2022-12-11T21:36:28.197Z,1.10
2022-12-11T21:38:54.642Z,1.10
2022-12-11T21:41:23.648Z,1.10
2022-12-11T21:44:56.581Z,1.00
2022-12-11T21:47:52.461Z,1.00
2022-12-11T21:50:19.070Z,1.00
2022-12-11T21:52:48.511Z,1.10
2022-12-11T21:55:17.388Z,1.00
2022-12-11T21:57:43.832Z,1.10
2022-12-11T22:00:11.819Z,1.00
2022-12-11T22:02:41.130Z,1.00
2022-12-11T22:05:09.181Z,0.70
2022-12-11T22:07:35.839Z,0.80
2022-12-11T22:10:03.571Z,0.90
2022-12-11T22:12:30.277Z,1.00
2022-12-11T22:14:57.247Z,1.10
2022-12-11T22:17:23.905Z,1.20
2022-12-11T22:19:53.520Z,1.30
2022-12-11T22:22:20.080Z,1.30
2022-12-11T22:24:47.378Z,1.40
2022-12-11T22:27:16.770Z,1.30
2022-12-11T22:29:45.569Z,1.30
2022-12-11T22:32:12.078Z,1.30
2022-12-11T22:34:38.846Z,1.30
2022-12-11T22:37:08.099Z,1.30
2022-12-11T22:39:34.836Z,1.30
2022-12-11T22:42:01.303Z,1.30
2022-12-11T22:44:27.753Z,1.40
2022-12-11T22:46:54.221Z,1.40
2022-12-11T22:49:20.672Z,1.50
2022-12-11T22:51:48.149Z,1.50
2022-12-11T22:54:14.693Z,1.40
2022-12-11T22:56:43.789Z,1.30
2022-12-11T22:59:10.249Z,1.30
2022-12-11T23:01:36.729Z,1.30
2022-12-11T23:04:03.189Z,1.40
2022-12-11T23:06:29.726Z,1.40
2022-12-11T23:08:59.931Z,1.30
2022-12-11T23:11:35.514Z,1.30
2022-12-11T23:14:04.448Z,1.30
2022-12-11T23:16:31.235Z,1.40
2022-12-11T23:19:01.314Z,1.30
2022-12-11T23:21:28.852Z,1.30
2022-12-11T23:23:56.559Z,1.40
2022-12-11T23:26:23.762Z,1.30
2022-12-11T23:28:50.314Z,1.30
2022-12-11T23:31:17.658Z,1.30
2022-12-11T23:33:44.418Z,1.30
2022-12-11T23:36:11.460Z,1.30
2022-12-11T23:38:39.241Z,1.30
2022-12-11T23:41:07.735Z,1.30
2022-12-11T23:43:36.078Z,1.20
2022-12-11T23:46:06.555Z,1.20
2022-12-11T23:48:33.251Z,1.20
2022-12-11T23:51:02.480Z,1.20
2022-12-11T23:53:29.260Z,1.20
2022-12-11T23:55:56.049Z,1.20
2022-12-11T23:58:22.611Z,1.20
